createdAt,value
2018-04-23T00:00:05.711Z,8.90
2018-04-23T00:02:33.254Z,9.37
2018-04-23T00:05:00.818Z,11.47
2018-04-23T00:07:28.484Z,10.43
2018-04-23T00:09:56.099Z,10.03
2018-04-23T00:12:23.752Z,9.90
2018-04-23T00:14:51.313Z,9.33
2018-04-23T00:17:18.923Z,10.30
2018-04-23T00:19:46.483Z,10.80
2018-04-23T00:22:14.084Z,10.80
2018-04-23T00:24:41.642Z,10.63
2018-04-23T00:27:09.241Z,11.07
2018-04-23T00:29:36.842Z,12.60
2018-04-23T00:32:04.462Z,13.60
2018-04-23T00:34:32.084Z,12.63
2018-04-23T00:36:59.643Z,12.83
2018-04-23T00:39:27.303Z,13.37
2018-04-23T00:41:54.929Z,13.80
2018-04-23T00:44:22.607Z,13.90
2018-04-23T00:46:50.163Z,15.80
2018-04-23T00:49:17.738Z,15.90
2018-04-23T00:51:45.335Z,14.67
2018-04-23T00:54:13.055Z,14.90
2018-04-23T00:56:40.610Z,14.80
2018-04-23T00:59:08.174Z,13.40
2018-04-23T01:01:35.838Z,12.57
2018-04-23T01:04:03.400Z,13.03
2018-04-23T01:06:31.003Z,17.23
2018-04-23T01:08:58.587Z,12.93
2018-04-23T01:11:26.200Z,12.87
2018-04-23T01:13:53.755Z,12.30
2018-04-23T01:16:21.355Z,11.53
2018-04-23T01:18:48.958Z,10.57
2018-04-23T01:21:16.519Z,11.23
2018-04-23T01:23:43.406Z,10.73
2018-04-23T01:26:11.012Z,9.53
2018-04-23T01:28:38.605Z,10.33
2018-04-23T01:31:06.167Z,9.70
2018-04-23T01:33:33.835Z,10.03
2018-04-23T01:36:01.383Z,9.53
2018-04-23T01:38:28.934Z,9.80
2018-04-23T01:40:56.626Z,10.33
2018-04-23T01:43:24.182Z,10.13
2018-04-23T01:45:51.739Z,10.67
2018-04-23T01:48:19.330Z,10.20
2018-04-23T01:50:46.879Z,9.70
2018-04-23T01:53:14.495Z,9.97
2018-04-23T01:55:42.056Z,10.60
2018-04-23T01:58:09.620Z,11.23
2018-04-23T02:00:37.244Z,12.43
2018-04-23T02:03:04.883Z,11.67
2018-04-23T02:05:32.463Z,11.50
2018-04-23T02:08:00.063Z,11.97
2018-04-23T02:10:27.631Z,12.20
2018-04-23T02:12:55.242Z,13.40
2018-04-23T02:15:22.856Z,12.83
2018-04-23T02:17:50.540Z,12.77
2018-04-23T02:20:18.115Z,12.77
2018-04-23T02:22:45.667Z,13.37
2018-04-23T02:25:13.370Z,13.03
2018-04-23T02:27:40.922Z,13.67
2018-04-23T02:30:08.538Z,13.77
2018-04-23T02:32:36.157Z,13.57
2018-04-23T02:35:03.769Z,14.10
2018-04-23T02:37:32.041Z,13.00
2018-04-23T02:39:59.643Z,11.60
2018-04-23T02:42:27.198Z,12.30
2018-04-23T02:44:54.799Z,11.80
2018-04-23T02:47:22.355Z,12.23
2018-04-23T02:49:49.910Z,12.10
2018-04-23T02:52:17.534Z,13.57
2018-04-23T02:54:45.090Z,12.67
2018-04-23T02:57:12.703Z,13.43
2018-04-23T02:59:40.319Z,14.50
2018-04-23T03:02:07.943Z,12.23
2018-04-23T03:04:35.503Z,12.23
2018-04-23T03:07:03.051Z,13.17
2018-04-23T03:09:30.646Z,11.83
2018-04-23T03:11:58.202Z,11.43
2018-04-23T03:14:25.828Z,10.93
2018-04-23T03:16:53.374Z,9.97
2018-04-23T03:19:20.982Z,9.27
2018-04-23T03:21:48.619Z,10.10
2018-04-23T03:24:16.179Z,10.70
2018-04-23T03:26:44.757Z,11.60
2018-04-23T03:29:12.412Z,11.77
2018-04-23T03:31:40.019Z,11.57
2018-04-23T03:34:07.634Z,10.87
2018-04-23T03:36:35.294Z,11.50
2018-04-23T03:39:02.915Z,9.80
2018-04-23T03:41:30.463Z,9.70
2018-04-23T03:43:58.063Z,9.80
2018-04-23T03:46:25.680Z,9.13
2018-04-23T03:48:53.279Z,10.07
2018-04-23T03:51:20.939Z,9.10
2018-04-23T03:53:48.558Z,9.30
2018-04-23T03:56:16.167Z,9.33
2018-04-23T03:58:43.721Z,9.00
2018-04-23T04:01:11.267Z,9.40
2018-04-23T04:03:39.003Z,8.13
2018-04-23T04:06:06.562Z,8.10
2018-04-23T04:08:34.181Z,7.77
2018-04-23T04:11:02.707Z,7.47
2018-04-23T04:13:41.948Z,8.20
2018-04-23T04:16:21.396Z,7.33
2018-04-23T04:18:49.007Z,7.43
2018-04-23T04:21:16.551Z,7.30
2018-04-23T04:23:44.160Z,6.80
2018-04-23T04:26:11.779Z,6.60
2018-04-23T04:28:39.333Z,7.57
2018-04-23T04:31:06.948Z,6.50
2018-04-23T04:33:34.575Z,7.17
2018-04-23T04:36:02.177Z,7.33
2018-04-23T04:38:29.732Z,7.53
2018-04-23T04:40:57.335Z,7.77
2018-04-23T04:43:25.015Z,8.10
2018-04-23T04:45:52.579Z,8.17
2018-04-23T04:48:20.383Z,7.37
2018-04-23T04:50:47.984Z,7.37
2018-04-23T04:53:15.587Z,9.65
2018-04-23T04:55:43.211Z,6.97
2018-04-23T04:58:11.827Z,7.57
2018-04-23T05:00:39.497Z,6.87
2018-04-23T05:03:07.049Z,5.47
2018-04-23T05:05:34.656Z,6.00
2018-04-23T05:08:02.292Z,6.43
2018-04-23T05:10:29.851Z,6.47
2018-04-23T05:12:57.445Z,8.80
2018-04-23T05:15:25.035Z,6.60
2018-04-23T05:17:52.614Z,7.13
2018-04-23T05:20:20.248Z,6.87
2018-04-23T05:22:47.862Z,6.13
2018-04-23T05:25:16.630Z,8.10
2018-04-23T05:27:44.252Z,6.13
2018-04-23T05:30:11.812Z,6.80
2018-04-23T05:32:39.363Z,6.33
2018-04-23T05:35:07.596Z,7.90
2018-04-23T05:37:35.188Z,5.80
2018-04-23T05:40:02.803Z,5.57
2018-04-23T05:42:30.711Z,6.73
2018-04-23T05:44:58.327Z,5.83
2018-04-23T05:47:25.878Z,6.70
2018-04-23T05:49:53.511Z,7.30
2018-04-23T05:52:21.124Z,5.50
2018-04-23T05:54:49.431Z,6.10
2018-04-23T05:57:17.105Z,4.70
2018-04-23T05:59:44.773Z,4.60
2018-04-23T06:02:12.348Z,6.15
2018-04-23T06:04:39.947Z,6.60
2018-04-23T06:07:07.572Z,5.90
2018-04-23T06:09:37.895Z,5.73
2018-04-23T06:12:07.444Z,9.20
2018-04-23T06:14:35.099Z,7.27
2018-04-23T06:17:02.722Z,5.20
2018-04-23T06:19:30.292Z,6.10
2018-04-23T06:21:57.915Z,6.28
2018-04-23T06:24:26.399Z,6.77
2018-04-23T06:26:54.007Z,4.93
2018-04-23T06:29:21.619Z,4.77
2018-04-23T06:31:49.229Z,5.07
2018-04-23T06:34:17.830Z,4.63
2018-04-23T06:36:45.380Z,4.57
2018-04-23T06:39:12.934Z,4.97
2018-04-23T06:41:40.591Z,2.23
2018-04-23T06:44:08.142Z,3.33
2018-04-23T06:46:35.791Z,2.90
2018-04-23T06:49:03.383Z,3.20
2018-04-23T06:51:31.000Z,3.10
2018-04-23T06:53:58.603Z,7.10
2018-04-23T06:56:26.219Z,5.87
2018-04-23T06:58:53.823Z,5.60
2018-04-23T07:01:21.427Z,5.27
2018-04-23T07:03:49.108Z,5.33
2018-04-23T07:06:16.819Z,5.57
2018-04-23T07:08:44.374Z,5.40
2018-04-23T07:11:11.987Z,5.77
2018-04-23T07:13:39.662Z,5.37
2018-04-23T07:16:07.280Z,5.07
2018-04-23T07:18:34.976Z,4.95
2018-04-23T07:21:02.654Z,5.10
2018-04-23T07:23:30.216Z,4.57
2018-04-23T07:25:57.858Z,5.03
2018-04-23T07:28:25.414Z,5.00
2018-04-23T07:30:52.983Z,4.72
2018-04-23T07:33:20.594Z,4.47
2018-04-23T07:35:48.222Z,4.53
2018-04-23T07:38:16.099Z,4.57
2018-04-23T07:40:43.703Z,4.22
2018-04-23T07:43:11.315Z,3.30
2018-04-23T07:45:38.872Z,3.65
2018-04-23T07:48:06.419Z,3.33
2018-04-23T07:50:34.075Z,3.58
2018-04-23T07:53:01.631Z,2.90
2018-04-23T07:55:29.302Z,2.80
2018-04-23T07:57:56.927Z,2.87
2018-04-23T08:00:24.550Z,2.03
2018-04-23T08:02:52.724Z,2.10
2018-04-23T08:05:20.283Z,3.03
2018-04-23T08:07:47.957Z,2.78
2018-04-23T08:10:15.568Z,2.67
2018-04-23T08:12:43.231Z,2.62
2018-04-23T08:15:10.867Z,2.42
2018-04-23T08:17:38.556Z,2.58
2018-04-23T08:20:06.237Z,2.80
2018-04-23T08:22:33.859Z,2.28
2018-04-23T08:25:01.423Z,2.35
2018-04-23T08:27:28.996Z,3.08
2018-04-23T08:29:56.628Z,2.67
2018-04-23T08:32:24.187Z,2.40
2018-04-23T08:34:51.901Z,2.47
2018-04-23T08:37:19.518Z,2.25
2018-04-23T08:39:47.158Z,2.40
2018-04-23T08:42:14.755Z,2.25
2018-04-23T08:44:42.427Z,2.55
2018-04-23T08:47:09.986Z,1.87
2018-04-23T08:49:37.615Z,9.05
2018-04-23T08:52:05.250Z,3.80
2018-04-23T08:54:32.931Z,2.58
2018-04-23T08:57:01.283Z,2.80
2018-04-23T08:59:28.950Z,2.30
2018-04-23T09:01:56.520Z,2.95
2018-04-23T09:04:24.201Z,3.70
2018-04-23T09:06:51.848Z,2.20
2018-04-23T09:09:19.421Z,1.95
2018-04-23T09:11:47.053Z,2.00
2018-04-23T09:14:14.669Z,1.75
2018-04-23T09:16:42.280Z,1.42
2018-04-23T09:19:09.892Z,1.58
2018-04-23T09:21:37.503Z,1.87
2018-04-23T09:24:05.179Z,2.50
2018-04-23T09:26:32.727Z,2.30
2018-04-23T09:29:00.308Z,2.58
2018-04-23T09:31:27.953Z,1.85
2018-04-23T09:33:55.550Z,2.03
2018-04-23T09:36:23.165Z,1.77
2018-04-23T09:38:51.614Z,2.05
2018-04-23T09:41:19.224Z,1.50
2018-04-23T09:43:46.853Z,1.40
2018-04-23T09:46:14.452Z,1.33
2018-04-23T09:48:42.003Z,1.40
2018-04-23T09:51:09.614Z,1.70
2018-04-23T09:53:37.240Z,1.30
2018-04-23T09:56:04.799Z,1.58
2018-04-23T09:58:32.400Z,2.00
2018-04-23T10:01:00.130Z,1.70
2018-04-23T10:03:27.818Z,4.12
2018-04-23T10:05:55.387Z,8.97
2018-04-23T10:08:22.952Z,2.28
2018-04-23T10:10:50.623Z,3.00
2018-04-23T10:13:18.184Z,1.80
2018-04-23T10:15:45.809Z,2.25
2018-04-23T10:18:13.364Z,2.12
2018-04-23T10:20:41.397Z,1.23
2018-04-23T10:23:09.053Z,0.85
2018-04-23T10:25:36.681Z,1.33
2018-04-23T10:28:04.329Z,0.80
2018-04-23T10:30:31.888Z,1.20
2018-04-23T10:32:59.498Z,1.17
2018-04-23T10:35:27.213Z,0.62
2018-04-23T10:37:54.850Z,0.50
2018-04-23T10:40:22.433Z,0.90
2018-04-23T10:42:50.021Z,1.48
2018-04-23T10:45:17.579Z,0.65
2018-04-23T10:47:45.206Z,0.70
2018-04-23T10:50:12.751Z,0.62
2018-04-23T10:52:41.299Z,0.73
2018-04-23T10:55:08.953Z,0.60
2018-04-23T10:57:36.507Z,0.80
2018-04-23T11:00:04.296Z,2.08
2018-04-23T11:02:31.850Z,0.60
2018-04-23T11:04:59.461Z,0.55
2018-04-23T11:07:27.094Z,0.82
2018-04-23T11:09:54.710Z,0.70
2018-04-23T11:12:22.319Z,0.90
2018-04-23T11:14:49.922Z,0.80
2018-04-23T11:17:17.475Z,0.80
2018-04-23T11:19:45.084Z,0.70
2018-04-23T11:22:12.763Z,1.10
2018-04-23T11:24:40.318Z,0.77
2018-04-23T11:27:07.970Z,0.70
2018-04-23T11:29:35.604Z,0.80
2018-04-23T11:32:03.162Z,0.70
2018-04-23T11:34:30.766Z,0.75
2018-04-23T11:36:58.401Z,2.42
2018-04-23T11:39:26.068Z,0.60
2018-04-23T11:41:53.882Z,0.70
2018-04-23T11:44:21.492Z,0.60
2018-04-23T11:46:49.100Z,0.75
2018-04-23T11:49:16.758Z,0.70
2018-04-23T11:51:44.351Z,0.62
2018-04-23T11:54:12.020Z,0.80
2018-04-23T11:56:39.603Z,0.70
2018-04-23T11:59:07.199Z,0.77
2018-04-23T12:01:35.515Z,0.62
2018-04-23T12:04:03.108Z,0.60
2018-04-23T12:06:30.721Z,0.70
2018-04-23T12:08:58.391Z,1.17
2018-04-23T12:11:25.950Z,1.05
2018-04-23T12:13:53.504Z,0.68
2018-04-23T12:16:21.109Z,0.90
2018-04-23T12:18:48.675Z,0.77
2018-04-23T12:21:16.222Z,0.60
2018-04-23T12:23:43.906Z,0.70
2018-04-23T12:26:11.518Z,0.80
2018-04-23T12:28:39.928Z,0.73
2018-04-23T12:31:07.543Z,0.52
2018-04-23T12:33:35.168Z,0.65
2018-04-23T12:36:02.724Z,0.60
2018-04-23T12:38:30.322Z,0.60
2018-04-23T12:40:57.935Z,0.62
2018-04-23T12:43:25.599Z,0.90
2018-04-23T12:45:53.279Z,0.62
2018-04-23T12:48:20.812Z,0.62
2018-04-23T12:50:48.438Z,0.75
2018-04-23T12:53:15.985Z,1.80
2018-04-23T12:55:43.531Z,0.90
2018-04-23T12:58:11.206Z,1.10
2018-04-23T13:00:38.849Z,0.90
2018-04-23T13:03:07.046Z,0.60
2018-04-23T13:05:35.574Z,0.70
2018-04-23T13:08:03.164Z,0.82
2018-04-23T13:10:30.709Z,0.82
2018-04-23T13:12:58.312Z,1.05
2018-04-23T13:15:25.884Z,1.00
2018-04-23T13:17:53.486Z,0.70
2018-04-23T13:20:21.043Z,0.88
2018-04-23T13:22:48.611Z,0.93
2018-04-23T13:25:16.199Z,0.88
2018-04-23T13:27:44.588Z,0.82
2018-04-23T13:30:12.174Z,0.90
2018-04-23T13:32:40.553Z,1.42
2018-04-23T13:35:08.216Z,0.88
2018-04-23T13:37:36.545Z,0.88
2018-04-23T13:40:04.149Z,0.85
2018-04-23T13:42:31.845Z,1.40
2018-04-23T13:44:59.499Z,0.93
2018-04-23T13:47:27.047Z,1.17
2018-04-23T13:49:54.593Z,1.10
2018-04-23T13:52:22.210Z,1.27
2018-04-23T13:54:49.756Z,0.93
2018-04-23T13:57:17.299Z,0.88
2018-04-23T13:59:44.936Z,1.10
2018-04-23T14:02:12.491Z,1.00
2018-04-23T14:04:40.104Z,1.33
2018-04-23T14:07:07.803Z,1.12
2018-04-23T14:09:35.413Z,1.83
2018-04-23T14:12:02.965Z,1.15
2018-04-23T14:14:30.574Z,1.55
2018-04-23T14:16:59.104Z,1.25
2018-04-23T14:19:27.408Z,1.42
2018-04-23T14:21:54.965Z,1.12
2018-04-23T14:24:23.163Z,1.37
2018-04-23T14:26:50.759Z,1.12
2018-04-23T14:29:18.556Z,1.35
2018-04-23T14:31:46.238Z,1.37
2018-04-23T14:34:13.808Z,1.08
2018-04-23T14:36:41.929Z,1.30
2018-04-23T14:39:09.543Z,1.15
2018-04-23T14:41:37.796Z,1.30
2018-04-23T14:44:05.431Z,1.50
2018-04-23T14:46:33.096Z,1.30
2018-04-23T14:49:00.708Z,1.17
2018-04-23T14:51:28.380Z,1.08
2018-04-23T14:53:57.138Z,1.48
2018-04-23T14:56:25.240Z,1.25
2018-04-23T14:58:52.833Z,1.12
2018-04-23T15:01:20.388Z,1.33
2018-04-23T15:03:47.990Z,1.08
2018-04-23T15:06:15.763Z,1.62
2018-04-23T15:08:43.322Z,1.30
2018-04-23T15:11:10.928Z,2.47
2018-04-23T15:13:38.506Z,1.45
2018-04-23T15:16:06.163Z,1.83
2018-04-23T15:18:33.718Z,1.27
2018-04-23T15:21:01.308Z,1.40
2018-04-23T15:23:28.931Z,1.42
2018-04-23T15:25:57.159Z,1.87
2018-04-23T15:28:24.917Z,1.15
2018-04-23T15:30:52.571Z,1.60
2018-04-23T15:33:20.119Z,1.10
2018-04-23T15:35:48.260Z,1.60
2018-04-23T15:38:15.859Z,1.55
2018-04-23T15:40:44.139Z,1.73
2018-04-23T15:43:11.704Z,1.20
2018-04-23T15:45:41.152Z,1.65
2018-04-23T15:48:08.703Z,1.42
2018-04-23T15:50:37.003Z,1.33
2018-04-23T15:53:04.552Z,1.37
2018-04-23T15:55:33.059Z,1.42
2018-04-23T15:58:00.727Z,1.75
2018-04-23T16:00:28.274Z,1.33
2018-04-23T16:02:57.775Z,1.62
2018-04-23T16:05:27.871Z,2.72
2018-04-23T16:07:55.571Z,1.83
2018-04-23T16:10:23.151Z,2.15
2018-04-23T16:12:50.723Z,2.12
2018-04-23T16:15:19.271Z,2.12
2018-04-23T16:17:47.438Z,3.37
2018-04-23T16:20:16.259Z,2.20
2018-04-23T16:22:43.872Z,2.42
2018-04-23T16:25:11.503Z,2.62
2018-04-23T16:27:40.152Z,2.20
2018-04-23T16:30:07.769Z,1.77
2018-04-23T16:32:35.398Z,2.42
2018-04-23T16:35:02.963Z,2.67
2018-04-23T16:37:30.563Z,2.80
2018-04-23T16:39:58.764Z,2.72
2018-04-23T16:42:27.392Z,2.75
2018-04-23T16:44:55.171Z,2.72
2018-04-23T16:47:22.758Z,3.28
2018-04-23T16:49:50.564Z,3.40
2018-04-23T16:52:20.515Z,3.50
2018-04-23T16:54:48.099Z,3.03
2018-04-23T16:57:16.747Z,2.50
2018-04-23T16:59:45.772Z,2.65
2018-04-23T17:02:13.327Z,2.62
2018-04-23T17:04:41.269Z,2.62
2018-04-23T17:07:08.911Z,2.90
2018-04-23T17:09:36.581Z,2.80
2018-04-23T17:12:04.284Z,3.17
2018-04-23T17:14:31.944Z,2.65
2018-04-23T17:16:59.552Z,2.97
2018-04-23T17:19:27.166Z,2.77
2018-04-23T17:21:55.680Z,3.27
2018-04-23T17:24:23.287Z,3.40
2018-04-23T17:26:50.883Z,4.80
2018-04-23T17:29:18.496Z,3.00
2018-04-23T17:31:46.091Z,2.50
2018-04-23T17:34:13.651Z,3.03
2018-04-23T17:36:41.935Z,4.17
2018-04-23T17:39:09.644Z,3.43
2018-04-23T17:41:37.307Z,4.00
2018-04-23T17:44:04.927Z,4.10
2018-04-23T17:46:32.588Z,3.97
2018-04-23T17:49:00.209Z,4.97
2018-04-23T17:51:27.802Z,4.87
2018-04-23T17:53:55.403Z,4.70
2018-04-23T17:56:22.995Z,5.43
2018-04-23T17:58:50.679Z,4.63
2018-04-23T18:01:18.591Z,5.63
2018-04-23T18:03:46.205Z,4.70
2018-04-23T18:06:13.820Z,4.43
2018-04-23T18:08:43.303Z,6.43
2018-04-23T18:11:11.712Z,6.80
2018-04-23T18:13:39.315Z,5.70
2018-04-23T18:16:07.004Z,5.90
2018-04-23T18:18:34.659Z,6.37
2018-04-23T18:21:02.211Z,7.63
2018-04-23T18:23:30.775Z,6.73
2018-04-23T18:25:59.234Z,7.07
2018-04-23T18:28:26.799Z,7.50
2018-04-23T18:30:54.347Z,8.53
2018-04-23T18:33:23.836Z,8.63
2018-04-23T18:35:51.396Z,8.03
2018-04-23T18:38:19.694Z,7.83
2018-04-23T18:40:47.359Z,7.30
2018-04-23T18:43:15.641Z,7.27
2018-04-23T18:45:43.325Z,6.77
2018-04-23T18:48:10.967Z,7.93
2018-04-23T18:50:39.348Z,7.60
2018-04-23T18:53:07.052Z,7.40
2018-04-23T18:55:34.826Z,7.27
2018-04-23T18:58:03.052Z,8.03
2018-04-23T19:00:31.673Z,7.73
2018-04-23T19:02:59.963Z,6.87
2018-04-23T19:05:28.552Z,7.67
2018-04-23T19:07:56.165Z,9.10
2018-04-23T19:10:24.239Z,9.23
2018-04-23T19:12:51.927Z,9.50
2018-04-23T19:15:19.483Z,9.50
2018-04-23T19:17:47.035Z,9.47
2018-04-23T19:20:14.673Z,9.30
2018-04-23T19:22:42.473Z,8.63
2018-04-23T19:25:10.836Z,7.03
2018-04-23T19:27:38.455Z,5.23
2018-04-23T19:30:06.018Z,7.10
2018-04-23T19:32:34.190Z,8.60
2018-04-23T19:35:01.819Z,7.77
2018-04-23T19:37:30.211Z,7.50
2018-04-23T19:39:57.832Z,8.87
2018-04-23T19:42:26.272Z,8.13
2018-04-23T19:44:53.871Z,9.33
2018-04-23T19:47:21.423Z,9.73
2018-04-23T19:49:49.019Z,8.00
2018-04-23T19:52:16.630Z,8.73
2018-04-23T19:54:44.249Z,7.87
2018-04-23T19:57:13.758Z,7.47
2018-04-23T19:59:41.347Z,8.67
2018-04-23T20:02:08.911Z,9.27
2018-04-23T20:04:36.516Z,8.67
2018-04-23T20:07:04.659Z,9.93
2018-04-23T20:09:32.382Z,10.27
2018-04-23T20:11:59.987Z,9.33
2018-04-23T20:14:27.634Z,9.53
2018-04-23T20:16:55.621Z,10.00
2018-04-23T20:19:23.182Z,10.87
2018-04-23T20:21:50.804Z,10.53
2018-04-23T20:24:18.538Z,11.60
2018-04-23T20:26:46.539Z,10.30
2018-04-23T20:29:14.187Z,8.40
2018-04-23T20:31:41.892Z,5.90
2018-04-23T20:34:09.480Z,10.00
2018-04-23T20:36:37.431Z,8.27
2018-04-23T20:39:05.296Z,9.47
2018-04-23T20:41:32.900Z,9.63
2018-04-23T20:44:00.451Z,10.47
2018-04-23T20:46:28.136Z,9.63
2018-04-23T20:48:55.691Z,10.73
2018-04-23T20:51:23.276Z,10.93
2018-04-23T20:53:50.935Z,11.23
2018-04-23T20:56:18.559Z,10.90
2018-04-23T20:58:46.233Z,11.77
2018-04-23T21:01:13.828Z,10.40
2018-04-23T21:03:42.315Z,10.63
2018-04-23T21:06:09.979Z,11.37
2018-04-23T21:08:38.514Z,10.63
2018-04-23T21:11:06.208Z,11.53
2018-04-23T21:13:33.795Z,13.77
2018-04-23T21:16:01.399Z,34.70
2018-04-23T21:18:28.956Z,36.00
2018-04-23T21:20:56.525Z,24.00
2018-04-23T21:23:24.197Z,20.43
2018-04-23T21:25:51.825Z,12.07
2018-04-23T21:28:19.459Z,12.03
2018-04-23T21:30:47.019Z,11.63
2018-04-23T21:33:14.668Z,12.47
2018-04-23T21:35:42.222Z,13.50
2018-04-23T21:38:10.715Z,13.67
2018-04-23T21:40:38.310Z,10.47
2018-04-23T21:43:05.856Z,9.53
2018-04-23T21:45:33.462Z,8.87
2018-04-23T21:48:01.024Z,8.67
2018-04-23T21:50:28.582Z,9.07
2018-04-23T21:52:56.251Z,9.80
2018-04-23T21:55:23.807Z,9.17
2018-04-23T21:57:51.359Z,8.93
2018-04-23T22:00:18.957Z,8.33
2018-04-23T22:02:47.307Z,8.77
2018-04-23T22:05:14.935Z,8.63
2018-04-23T22:07:42.867Z,9.00
2018-04-23T22:10:11.209Z,8.37
2018-04-23T22:12:39.435Z,7.50
2018-04-23T22:15:07.177Z,6.90
2018-04-23T22:17:34.732Z,6.40
2018-04-23T22:20:02.275Z,3.83
2018-04-23T22:22:30.667Z,6.90
2018-04-23T22:24:58.218Z,6.60
2018-04-23T22:27:25.811Z,7.37
2018-04-23T22:29:54.194Z,7.07
2018-04-23T22:32:21.812Z,6.17
2018-04-23T22:34:49.850Z,6.00
2018-04-23T22:37:17.479Z,6.73
2018-04-23T22:39:45.471Z,7.13
2018-04-23T22:42:13.035Z,6.00
2018-04-23T22:44:40.623Z,6.10
2018-04-23T22:47:08.230Z,6.03
2018-04-23T22:49:35.783Z,7.87
2018-04-23T22:52:03.340Z,6.17
2018-04-23T22:54:30.947Z,6.43
2018-04-23T22:56:58.552Z,5.20
2018-04-23T22:59:26.251Z,5.27
2018-04-23T23:01:53.802Z,5.77
2018-04-23T23:04:21.347Z,5.10
2018-04-23T23:06:48.947Z,5.73
2018-04-23T23:09:16.576Z,5.80
2018-04-23T23:11:44.129Z,5.60
2018-04-23T23:14:11.715Z,5.50
2018-04-23T23:16:39.263Z,5.27
2018-04-23T23:19:06.865Z,5.43
2018-04-23T23:21:34.475Z,5.97
2018-04-23T23:24:02.132Z,6.00
2018-04-23T23:26:29.687Z,7.77
2018-04-23T23:28:57.294Z,5.53
2018-04-23T23:31:24.903Z,5.70
2018-04-23T23:33:52.496Z,6.20
2018-04-23T23:36:20.115Z,6.10
2018-04-23T23:38:47.707Z,5.00
2018-04-23T23:41:15.259Z,5.43
2018-04-23T23:43:42.850Z,5.93
2018-04-23T23:46:10.459Z,5.67
2018-04-23T23:48:38.082Z,6.20
2018-04-23T23:51:05.675Z,5.70
2018-04-23T23:53:33.319Z,6.30
2018-04-23T23:56:00.927Z,6.53
2018-04-23T23:58:28.485Z,6.53
